createdAt,value
2018-07-17T00:01:35.137Z,20.49
2018-07-17T00:04:03.889Z,20.41
2018-07-17T00:06:32.605Z,20.37
2018-07-17T00:09:01.288Z,20.35
2018-07-17T00:11:30.551Z,20.32
2018-07-17T00:13:59.258Z,20.34
2018-07-17T00:16:27.963Z,20.33
2018-07-17T00:18:56.656Z,20.32
2018-07-17T00:21:25.344Z,20.25
2018-07-17T00:23:54.054Z,20.17
2018-07-17T00:26:22.754Z,20.14
2018-07-17T00:28:51.460Z,20.13
2018-07-17T00:31:20.255Z,20.05
2018-07-17T00:33:49.034Z,20.11
2018-07-17T00:36:17.711Z,20.08
2018-07-17T00:38:46.444Z,20.05
2018-07-17T00:41:15.098Z,20.04
2018-07-17T00:43:43.905Z,20.01
2018-07-17T00:46:12.581Z,19.89
2018-07-17T00:48:41.277Z,19.93
2018-07-17T00:51:10.020Z,19.97
2018-07-17T00:53:38.736Z,19.99
2018-07-17T00:56:07.544Z,20.07
2018-07-17T00:58:36.330Z,20.13
2018-07-17T01:01:04.088Z,20.07
2018-07-17T01:03:38.049Z,20.13
2018-07-17T01:06:12.005Z,20.22
2018-07-17T01:08:45.900Z,20.27
2018-07-17T01:11:19.878Z,20.30
2018-07-17T01:13:52.458Z,20.32
2018-07-17T01:16:21.144Z,20.40
2018-07-17T01:18:49.828Z,20.40
2018-07-17T01:21:18.489Z,20.44
2018-07-17T01:23:47.168Z,20.35
2018-07-17T01:26:15.854Z,20.16
2018-07-17T01:28:44.568Z,20.10
2018-07-17T01:31:13.513Z,19.97
2018-07-17T01:33:42.203Z,20.02
2018-07-17T01:36:10.932Z,20.05
2018-07-17T01:38:39.680Z,19.91
2018-07-17T01:41:08.386Z,20.00
2018-07-17T01:43:37.116Z,20.20
2018-07-17T01:46:05.903Z,20.22
2018-07-17T01:48:34.831Z,20.33
2018-07-17T01:51:03.547Z,20.41
2018-07-17T01:53:32.290Z,20.45
2018-07-17T01:56:01.022Z,20.51
2018-07-17T01:58:29.792Z,20.50
2018-07-17T02:00:58.542Z,20.48
2018-07-17T02:03:27.289Z,20.41
2018-07-17T02:05:55.976Z,20.28
2018-07-17T02:08:24.627Z,20.28
2018-07-17T02:10:53.386Z,20.25
2018-07-17T02:13:22.064Z,20.19
2018-07-17T02:15:50.779Z,20.22
2018-07-17T02:18:19.455Z,20.11
2018-07-17T02:20:48.124Z,20.15
2018-07-17T02:23:16.918Z,20.06
2018-07-17T02:25:45.620Z,20.03
2018-07-17T02:28:14.294Z,20.04
2018-07-17T02:30:43.062Z,20.03
2018-07-17T02:33:11.756Z,20.10
2018-07-17T02:35:40.445Z,20.01
2018-07-17T02:38:09.150Z,20.05
2018-07-17T02:40:37.832Z,19.99
2018-07-17T02:43:06.551Z,20.01
2018-07-17T02:45:35.222Z,20.01
2018-07-17T02:48:03.957Z,20.02
2018-07-17T02:50:32.625Z,19.98
2018-07-17T02:53:01.344Z,19.91
2018-07-17T02:55:30.043Z,19.84
2018-07-17T02:57:58.710Z,19.87
2018-07-17T03:00:27.425Z,19.83
2018-07-17T03:02:56.112Z,19.71
2018-07-17T03:05:24.923Z,19.63
2018-07-17T03:07:53.623Z,19.53
2018-07-17T03:10:22.380Z,19.40
2018-07-17T03:12:51.094Z,19.34
2018-07-17T03:15:19.799Z,19.29
2018-07-17T03:17:48.516Z,19.15
2018-07-17T03:20:17.261Z,19.12
2018-07-17T03:22:45.920Z,19.06
2018-07-17T03:25:14.607Z,19.00
2018-07-17T03:27:43.300Z,18.99
2018-07-17T03:30:12.040Z,18.95
2018-07-17T03:32:40.860Z,18.95
2018-07-17T03:35:09.581Z,18.85
2018-07-17T03:37:38.284Z,18.87
2018-07-17T03:40:07.190Z,18.86
2018-07-17T03:42:35.932Z,18.87
2018-07-17T03:45:04.749Z,18.84
2018-07-17T03:47:33.552Z,18.82
2018-07-17T03:50:02.301Z,18.77
2018-07-17T03:52:31.024Z,18.81
2018-07-17T03:54:59.725Z,18.77
2018-07-17T03:57:28.464Z,18.79
2018-07-17T03:59:57.184Z,18.82
2018-07-17T04:02:26.701Z,18.84
2018-07-17T04:04:55.481Z,18.89
2018-07-17T04:07:24.201Z,18.94
2018-07-17T04:09:52.903Z,19.00
2018-07-17T04:12:21.615Z,19.02
2018-07-17T04:14:50.396Z,19.07
2018-07-17T04:17:20.177Z,19.05
2018-07-17T04:19:49.003Z,19.13
2018-07-17T04:22:17.772Z,19.09
2018-07-17T04:24:46.817Z,19.15
2018-07-17T04:27:17.585Z,19.24
2018-07-17T04:29:46.503Z,19.34
2018-07-17T04:32:15.317Z,19.37
2018-07-17T04:34:44.015Z,19.38
2018-07-17T04:37:12.751Z,19.43
2018-07-17T04:39:41.473Z,19.50
2018-07-17T04:42:10.255Z,19.57
2018-07-17T04:44:38.955Z,19.68
2018-07-17T04:47:07.665Z,19.78
2018-07-17T04:49:36.431Z,19.80
2018-07-17T04:52:05.149Z,19.93
2018-07-17T04:54:34.256Z,19.98
2018-07-17T04:57:03.030Z,19.99
2018-07-17T04:59:31.716Z,19.97
2018-07-17T05:02:00.457Z,20.05
2018-07-17T05:04:29.193Z,20.06
2018-07-17T05:06:58.031Z,20.05
2018-07-17T05:09:26.754Z,19.92
2018-07-17T05:11:55.473Z,20.03
2018-07-17T05:14:24.156Z,20.06
2018-07-17T05:16:52.811Z,20.13
2018-07-17T05:19:21.484Z,20.17
2018-07-17T05:21:50.464Z,20.34
2018-07-17T05:24:19.239Z,20.44
2018-07-17T05:26:47.987Z,20.50
2018-07-17T05:29:16.775Z,20.52
2018-07-17T05:31:45.525Z,20.69
2018-07-17T05:34:14.331Z,20.78
2018-07-17T05:36:43.033Z,20.77
2018-07-17T05:39:11.766Z,20.84
2018-07-17T05:41:40.487Z,20.87
2018-07-17T05:44:09.275Z,20.99
2018-07-17T05:46:38.015Z,21.02
2018-07-17T05:49:06.796Z,21.06
2018-07-17T05:51:35.516Z,21.12
2018-07-17T05:54:04.347Z,21.21
2018-07-17T05:56:33.076Z,21.36
2018-07-17T05:59:01.807Z,21.30
2018-07-17T06:01:30.606Z,21.38
2018-07-17T06:03:59.398Z,21.53
2018-07-17T06:06:28.225Z,21.64
2018-07-17T06:08:56.980Z,21.73
2018-07-17T06:11:25.750Z,21.84
2018-07-17T06:13:54.558Z,21.99
2018-07-17T06:16:23.291Z,22.21
2018-07-17T06:18:52.068Z,22.40
2018-07-17T06:21:20.764Z,22.51
2018-07-17T06:23:49.469Z,22.69
2018-07-17T06:26:18.176Z,22.53
2018-07-17T06:28:46.901Z,22.60
2018-07-17T06:31:15.645Z,22.45
2018-07-17T06:33:44.428Z,22.59
2018-07-17T06:36:13.156Z,22.61
2018-07-17T06:38:41.860Z,22.64
2018-07-17T06:41:10.639Z,22.74
2018-07-17T06:43:39.403Z,22.68
2018-07-17T06:46:08.145Z,22.82
2018-07-17T06:48:36.854Z,22.96
2018-07-17T06:51:05.573Z,23.05
2018-07-17T06:53:34.344Z,23.02
2018-07-17T06:56:03.142Z,23.05
2018-07-17T06:58:31.900Z,23.06
2018-07-17T07:01:00.653Z,23.10
2018-07-17T07:03:29.347Z,23.16
2018-07-17T07:05:58.122Z,23.16
2018-07-17T07:08:26.826Z,23.20
2018-07-17T07:10:55.619Z,23.27
2018-07-17T07:13:24.301Z,23.30
2018-07-17T07:15:53.045Z,23.25
2018-07-17T07:18:21.762Z,23.15
2018-07-17T07:20:50.467Z,23.10
2018-07-17T07:23:19.213Z,22.95
2018-07-17T07:25:47.974Z,23.05
2018-07-17T07:28:16.825Z,22.93
2018-07-17T07:30:45.646Z,23.03
2018-07-17T07:33:14.355Z,23.10
2018-07-17T07:35:43.263Z,22.91
2018-07-17T07:38:12.042Z,22.74
2018-07-17T07:40:40.886Z,22.73
2018-07-17T07:43:14.204Z,22.71
2018-07-17T07:45:42.958Z,22.40
2018-07-17T07:48:14.945Z,22.26
2018-07-17T07:50:43.681Z,22.05
2018-07-17T07:53:12.427Z,21.85
2018-07-17T07:55:44.280Z,21.25
2018-07-17T07:58:18.484Z,20.37
2018-07-17T08:00:47.258Z,19.72
2018-07-17T08:03:19.886Z,19.36
2018-07-17T08:05:48.617Z,18.98
2018-07-17T08:08:17.299Z,18.81
2018-07-17T08:10:45.990Z,18.71
2018-07-17T08:13:16.550Z,18.75
2018-07-17T08:15:45.254Z,18.58
2018-07-17T08:18:15.960Z,18.70
2018-07-17T08:20:44.760Z,18.53
2018-07-17T08:23:13.539Z,18.72
2018-07-17T08:25:42.274Z,18.69
2018-07-17T08:28:11.031Z,18.61
2018-07-17T08:30:39.761Z,18.60
2018-07-17T08:33:11.930Z,18.69
2018-07-17T08:35:41.646Z,18.89
2018-07-17T08:38:10.281Z,19.01
2018-07-17T08:40:39.044Z,19.13
2018-07-17T08:43:11.182Z,19.23
2018-07-17T08:45:41.986Z,19.27
2018-07-17T08:48:17.333Z,19.47
2018-07-17T08:50:47.347Z,19.60
2018-07-17T08:53:16.026Z,19.80
2018-07-17T08:55:51.066Z,19.97
2018-07-17T08:58:19.887Z,20.17
2018-07-17T09:00:52.374Z,20.34
2018-07-17T09:03:25.155Z,20.51
2018-07-17T09:05:53.972Z,20.77
2018-07-17T09:08:29.774Z,20.92
2018-07-17T09:10:58.524Z,21.18
2018-07-17T09:13:31.409Z,21.33
2018-07-17T09:16:00.122Z,21.31
2018-07-17T09:18:28.868Z,21.50
2018-07-17T09:20:57.609Z,21.59
2018-07-17T09:23:26.369Z,21.64
2018-07-17T09:25:55.232Z,21.67
2018-07-17T09:28:30.469Z,21.91
2018-07-17T09:31:01.043Z,21.93
2018-07-17T09:33:30.878Z,21.96
2018-07-17T09:36:00.920Z,22.06
2018-07-17T09:38:29.949Z,22.03
2018-07-17T09:40:58.664Z,22.12
2018-07-17T09:43:27.411Z,22.15
2018-07-17T09:45:56.107Z,22.28
2018-07-17T09:48:24.796Z,22.25
2018-07-17T09:50:53.602Z,22.37
2018-07-17T09:53:23.301Z,22.23
2018-07-17T09:55:52.034Z,22.48
2018-07-17T09:58:20.796Z,22.49
2018-07-17T10:00:54.710Z,22.54
2018-07-17T10:03:23.545Z,22.58
2018-07-17T10:05:52.306Z,22.51
2018-07-17T10:08:21.041Z,22.65
2018-07-17T10:10:49.705Z,22.75
2018-07-17T10:13:18.444Z,22.85
2018-07-17T10:15:47.155Z,23.17
2018-07-17T10:18:15.925Z,23.39
2018-07-17T10:20:44.633Z,23.38
2018-07-17T10:23:13.460Z,23.61
2018-07-17T10:25:42.236Z,23.85
2018-07-17T10:28:10.973Z,24.16
2018-07-17T10:30:40.733Z,24.35
2018-07-17T10:33:09.548Z,24.46
2018-07-17T10:35:38.230Z,24.32
2018-07-17T10:38:06.951Z,24.49
2018-07-17T10:40:35.635Z,24.80
2018-07-17T10:43:04.363Z,25.06
2018-07-17T10:45:33.446Z,25.30
2018-07-17T10:48:02.184Z,24.92
2018-07-17T10:50:30.970Z,24.99
2018-07-17T10:52:59.714Z,25.14
2018-07-17T10:55:33.143Z,25.23
2018-07-17T10:58:03.026Z,25.31
2018-07-17T11:00:34.366Z,25.27
2018-07-17T11:03:04.711Z,25.81
2018-07-17T11:05:37.057Z,26.19
2018-07-17T11:08:08.188Z,26.64
2018-07-17T11:10:39.215Z,27.02
2018-07-17T11:13:10.412Z,27.11
2018-07-17T11:15:45.017Z,27.32
2018-07-17T11:18:20.675Z,27.75
2018-07-17T11:20:54.641Z,27.97
2018-07-17T11:23:27.421Z,28.46
2018-07-17T11:25:59.334Z,28.71
2018-07-17T11:28:28.058Z,28.99
2018-07-17T11:30:56.746Z,28.95
2018-07-17T11:33:25.559Z,29.24
2018-07-17T11:35:54.230Z,28.55
2018-07-17T11:38:23.027Z,28.68
2018-07-17T11:40:51.711Z,28.46
2018-07-17T11:43:20.472Z,28.08
2018-07-17T11:45:49.169Z,28.04
2018-07-17T11:48:17.845Z,27.94
2018-07-17T11:50:46.620Z,27.95
2018-07-17T11:53:15.360Z,28.15
2018-07-17T11:55:44.741Z,28.14
2018-07-17T11:58:13.506Z,27.60
2018-07-17T12:00:42.230Z,27.17
2018-07-17T12:03:10.982Z,26.46
2018-07-17T12:05:39.803Z,26.21
2018-07-17T12:08:08.546Z,25.90
2018-07-17T12:10:37.322Z,25.99
2018-07-17T12:13:06.249Z,25.76
2018-07-17T12:15:34.967Z,25.90
2018-07-17T12:18:03.645Z,26.01
2018-07-17T12:20:32.691Z,25.69
2018-07-17T12:23:01.251Z,25.67
2018-07-17T12:25:29.982Z,25.52
2018-07-17T12:27:59.682Z,25.68
2018-07-17T12:30:28.455Z,25.74
2018-07-17T12:32:57.251Z,25.62
2018-07-17T12:35:26.007Z,25.48
2018-07-17T12:37:55.151Z,25.55
2018-07-17T12:40:23.910Z,25.69
2018-07-17T12:42:52.882Z,25.72
2018-07-17T12:45:21.575Z,25.84
2018-07-17T12:47:50.280Z,25.97
2018-07-17T12:50:19.048Z,26.20
2018-07-17T12:52:47.927Z,26.37
2018-07-17T12:55:16.683Z,26.25
2018-07-17T12:57:45.421Z,26.26
2018-07-17T13:00:14.262Z,26.25
2018-07-17T13:02:43.074Z,26.04
2018-07-17T13:05:11.804Z,25.85
2018-07-17T13:07:40.811Z,25.48
2018-07-17T13:10:09.530Z,25.74
2018-07-17T13:12:38.359Z,25.94
2018-07-17T13:15:07.161Z,26.00
2018-07-17T13:17:35.846Z,26.07
2018-07-17T13:20:05.267Z,26.28
2018-07-17T13:22:33.919Z,26.40
2018-07-17T13:25:02.729Z,26.55
2018-07-17T13:27:31.387Z,26.09
2018-07-17T13:30:00.088Z,25.97
2018-07-17T13:32:28.842Z,26.27
2018-07-17T13:34:57.560Z,26.10
2018-07-17T13:37:26.249Z,26.18
2018-07-17T13:39:54.952Z,26.23
2018-07-17T13:42:23.702Z,26.32
2018-07-17T13:44:52.507Z,26.54
2018-07-17T13:47:21.247Z,26.45
2018-07-17T13:49:49.968Z,26.98
2018-07-17T13:52:18.794Z,27.24
2018-07-17T13:54:47.647Z,27.51
2018-07-17T13:57:16.585Z,28.01
2018-07-17T13:59:45.258Z,28.54
2018-07-17T14:02:13.927Z,28.82
2018-07-17T14:04:42.751Z,28.90
2018-07-17T14:07:11.452Z,29.14
2018-07-17T14:09:40.110Z,29.49
2018-07-17T14:12:09.450Z,29.73
2018-07-17T14:14:38.112Z,29.96
2018-07-17T14:17:06.866Z,29.92
2018-07-17T14:19:35.548Z,29.97
2018-07-17T14:22:04.318Z,29.81
2018-07-17T14:24:33.099Z,29.17
2018-07-17T14:27:05.763Z,28.43
2018-07-17T14:29:34.480Z,28.30
2018-07-17T14:32:03.187Z,27.94
2018-07-17T14:34:31.940Z,27.46
2018-07-17T14:37:00.688Z,26.69
2018-07-17T14:39:29.441Z,26.18
2018-07-17T14:41:59.387Z,25.94
2018-07-17T14:44:28.086Z,25.77
2018-07-17T14:46:56.944Z,25.72
2018-07-17T14:49:25.754Z,25.51
2018-07-17T14:51:54.510Z,25.30
2018-07-17T14:54:23.308Z,25.26
2018-07-17T14:56:52.034Z,25.27
2018-07-17T14:59:21.022Z,25.22
2018-07-17T15:01:50.643Z,25.17
2018-07-17T15:04:19.951Z,24.91
2018-07-17T15:06:48.686Z,24.78
2018-07-17T15:09:17.378Z,24.93
2018-07-17T15:11:46.060Z,25.13
2018-07-17T15:14:14.792Z,25.14
2018-07-17T15:16:43.455Z,24.76
2018-07-17T15:19:12.159Z,24.76
2018-07-17T15:21:40.863Z,24.62
2018-07-17T15:24:09.693Z,24.56
2018-07-17T15:26:38.427Z,24.62
2018-07-17T15:29:07.180Z,24.71
2018-07-17T15:31:35.970Z,24.78
2018-07-17T15:34:04.711Z,24.42
2018-07-17T15:36:33.709Z,24.38
2018-07-17T15:39:02.443Z,24.38
2018-07-17T15:41:31.160Z,24.49
2018-07-17T15:43:59.907Z,24.40
2018-07-17T15:46:28.608Z,24.13
2018-07-17T15:48:57.348Z,24.16
2018-07-17T15:51:26.097Z,24.05
2018-07-17T15:53:55.299Z,23.83
2018-07-17T15:56:23.934Z,23.75
2018-07-17T15:58:52.628Z,23.77
2018-07-17T16:01:21.563Z,23.75
2018-07-17T16:03:50.386Z,23.60
2018-07-17T16:06:19.965Z,23.58
2018-07-17T16:08:48.500Z,23.48
2018-07-17T16:11:17.487Z,23.45
2018-07-17T16:13:46.412Z,23.50
2018-07-17T16:16:14.974Z,23.33
2018-07-17T16:18:43.711Z,23.20
2018-07-17T16:21:12.545Z,23.12
2018-07-17T16:23:41.323Z,23.05
2018-07-17T16:26:10.140Z,23.06
2018-07-17T16:28:38.838Z,22.94
2018-07-17T16:31:07.521Z,22.91
2018-07-17T16:33:36.373Z,22.86
2018-07-17T16:36:05.166Z,22.79
2018-07-17T16:38:33.918Z,22.64
2018-07-17T16:41:03.226Z,22.67
2018-07-17T16:43:31.950Z,22.60
2018-07-17T16:46:00.792Z,22.62
2018-07-17T16:48:29.587Z,22.65
2018-07-17T16:50:59.744Z,22.64
2018-07-17T16:53:29.580Z,22.53
2018-07-17T16:58:06.727Z,22.29
2018-07-17T17:03:05.145Z,22.16
2018-07-17T17:05:34.157Z,22.01
2018-07-17T17:08:03.049Z,22.00
2018-07-17T17:10:31.746Z,21.90
2018-07-17T17:13:00.809Z,21.84
2018-07-17T17:15:29.767Z,21.87
2018-07-17T17:17:58.930Z,21.81
2018-07-17T17:20:27.671Z,21.74
2018-07-17T17:22:56.486Z,21.70
2018-07-17T17:25:25.389Z,21.71
2018-07-17T17:27:54.050Z,21.76
2018-07-17T17:30:22.898Z,21.79
2018-07-17T17:32:51.775Z,21.83
2018-07-17T17:35:21.083Z,21.73
2018-07-17T17:37:50.951Z,21.72
2018-07-17T17:40:19.820Z,21.70
2018-07-17T17:42:49.106Z,21.69
2018-07-17T17:45:19.357Z,21.53
2018-07-17T17:47:48.398Z,21.47
2018-07-17T17:50:17.188Z,21.46
2018-07-17T17:52:45.916Z,21.40
2018-07-17T17:55:14.612Z,21.36
2018-07-17T17:57:43.356Z,21.27
2018-07-17T18:00:12.422Z,21.25
2018-07-17T18:02:41.206Z,21.23
2018-07-17T18:05:09.964Z,21.26
2018-07-17T18:07:38.878Z,21.20
2018-07-17T18:10:07.567Z,21.20
2018-07-17T18:12:36.358Z,21.18
2018-07-17T18:15:05.150Z,21.21
2018-07-17T18:17:34.253Z,21.20
2018-07-17T18:20:03.197Z,21.12
2018-07-17T18:22:32.903Z,21.09
2018-07-17T18:25:02.069Z,21.06
2018-07-17T18:27:30.842Z,21.00
2018-07-17T18:30:00.104Z,20.97
2018-07-17T18:32:28.905Z,20.93
2018-07-17T18:34:57.618Z,20.96
2018-07-17T18:37:26.336Z,20.85
2018-07-17T18:39:55.137Z,20.83
2018-07-17T18:42:23.812Z,20.79
2018-07-17T18:44:52.564Z,20.74
2018-07-17T18:47:21.295Z,20.72
2018-07-17T18:50:12.000Z,20.73
2018-07-17T18:52:19.918Z,20.77
2018-07-17T18:54:48.586Z,20.68
2018-07-17T18:57:17.344Z,20.67
2018-07-17T18:59:46.135Z,20.61
2018-07-17T19:02:14.746Z,20.51
2018-07-17T19:04:43.460Z,20.45
2018-07-17T19:07:12.203Z,20.41
2018-07-17T19:09:41.110Z,20.40
2018-07-17T19:12:09.933Z,20.41
2018-07-17T19:14:38.816Z,20.36
2018-07-17T19:17:07.558Z,20.41
2018-07-17T19:19:36.718Z,20.44
2018-07-17T19:22:05.471Z,20.36
2018-07-17T19:24:34.500Z,20.35
2018-07-17T19:27:03.980Z,20.27
2018-07-17T19:29:32.775Z,20.29
2018-07-17T19:32:02.777Z,20.27
2018-07-17T19:34:31.852Z,20.23
2018-07-17T19:37:00.524Z,20.18
2018-07-17T19:39:29.257Z,20.14
2018-07-17T19:41:57.967Z,20.11
2018-07-17T19:44:26.701Z,20.12
2018-07-17T19:46:55.526Z,20.14
2018-07-17T19:49:24.333Z,20.15
2018-07-17T19:51:53.168Z,20.13
2018-07-17T19:54:22.064Z,20.13
2018-07-17T19:56:50.818Z,20.16
2018-07-17T19:59:19.538Z,20.21
2018-07-17T20:01:54.167Z,20.28
2018-07-17T20:04:36.394Z,20.22
2018-07-17T20:07:05.637Z,20.27
2018-07-17T20:09:34.495Z,20.27
2018-07-17T20:12:04.553Z,20.25
2018-07-17T20:14:33.261Z,20.14
2018-07-17T20:17:01.981Z,20.12
2018-07-17T20:19:30.697Z,20.07
2018-07-17T20:21:59.437Z,20.07
2018-07-17T20:24:28.347Z,20.06
2018-07-17T20:26:57.103Z,20.06
2018-07-17T20:29:26.343Z,20.03
2018-07-17T20:31:55.707Z,20.01
2018-07-17T20:34:24.545Z,19.98
2018-07-17T20:36:53.239Z,19.90
2018-07-17T20:39:21.965Z,19.93
2018-07-17T20:41:51.610Z,19.87
2018-07-17T20:44:20.365Z,19.80
2018-07-17T20:46:51.005Z,19.84
2018-07-17T20:49:19.758Z,19.86
2018-07-17T20:51:48.532Z,19.86
2018-07-17T20:54:17.187Z,19.85
2018-07-17T20:56:46.664Z,19.82
2018-07-17T20:59:15.744Z,19.82
2018-07-17T21:01:44.607Z,19.79
2018-07-17T21:04:13.373Z,19.81
2018-07-17T21:06:42.237Z,19.81
2018-07-17T21:09:12.115Z,19.74
2018-07-17T21:11:41.078Z,19.75
2018-07-17T21:14:10.740Z,19.75
2018-07-17T21:16:39.587Z,19.74
2018-07-17T21:19:08.389Z,19.70
2018-07-17T21:21:37.200Z,19.64
2018-07-17T21:24:06.017Z,19.61
2018-07-17T21:26:34.863Z,19.58
2018-07-17T21:29:03.681Z,19.56
2018-07-17T21:31:32.444Z,19.53
2018-07-17T21:34:01.227Z,19.56
2018-07-17T21:36:30.105Z,19.59
2018-07-17T21:38:58.849Z,19.56
2018-07-17T21:41:27.575Z,19.54
2018-07-17T21:43:56.325Z,19.54
2018-07-17T21:46:25.021Z,19.49
2018-07-17T21:48:53.707Z,19.49
2018-07-17T21:51:22.458Z,19.51
2018-07-17T21:53:51.155Z,19.49
2018-07-17T21:56:19.898Z,19.43
2018-07-17T21:58:48.642Z,19.48
2018-07-17T22:01:17.497Z,19.43
2018-07-17T22:03:46.210Z,19.39
2018-07-17T22:06:14.916Z,19.41
2018-07-17T22:08:44.617Z,19.37
2018-07-17T22:11:13.356Z,19.27
2018-07-17T22:13:42.021Z,19.17
2018-07-17T22:16:10.736Z,19.10
2018-07-17T22:18:39.479Z,19.07
2018-07-17T22:21:08.288Z,19.05
2018-07-17T22:23:37.008Z,19.04
2018-07-17T22:26:05.788Z,18.99
2018-07-17T22:28:34.563Z,18.93
2018-07-17T22:31:03.267Z,18.81
2018-07-17T22:33:31.990Z,18.81
2018-07-17T22:36:00.758Z,18.78
2018-07-17T22:38:29.531Z,18.75
2018-07-17T22:40:58.361Z,18.72
2018-07-17T22:43:27.125Z,18.71
2018-07-17T22:45:55.864Z,18.66
2018-07-17T22:48:24.593Z,18.66
2018-07-17T22:50:53.808Z,18.64
2018-07-17T22:53:22.511Z,18.56
2018-07-17T22:55:51.301Z,18.59
2018-07-17T22:58:20.034Z,18.53
2018-07-17T23:00:48.876Z,18.57
2018-07-17T23:03:17.590Z,18.57
2018-07-17T23:05:46.316Z,18.57
2018-07-17T23:08:15.030Z,18.53
2018-07-17T23:10:43.734Z,18.52
2018-07-17T23:13:12.498Z,18.48
2018-07-17T23:15:41.186Z,18.47
2018-07-17T23:18:09.897Z,18.46
2018-07-17T23:20:38.700Z,18.47
2018-07-17T23:23:07.424Z,18.47
2018-07-17T23:25:36.112Z,18.40
2018-07-17T23:28:04.849Z,18.40
2018-07-17T23:30:33.608Z,18.36
2018-07-17T23:33:02.266Z,18.35
2018-07-17T23:35:31.000Z,18.33
2018-07-17T23:38:00.182Z,18.30
2018-07-17T23:40:28.936Z,18.32
2018-07-17T23:42:57.709Z,18.30
2018-07-17T23:45:26.437Z,18.27
2018-07-17T23:47:55.128Z,18.27
2018-07-17T23:50:23.880Z,18.28
2018-07-17T23:52:52.579Z,18.29
2018-07-17T23:55:21.284Z,18.27
2018-07-17T23:57:49.988Z,18.22
